sensor_id;sensor_type;location;lat;lon;timestamp;P1;durP1;ratioP1;P2;durP2;ratioP2
69280;SDS011;56392;51.082;17.080;2023-07-31T00:04:14;7.85;;;2.15;;
69280;SDS011;56392;51.082;17.080;2023-07-31T00:09:37;5.87;;;2.07;;
69280;SDS011;56392;51.082;17.080;2023-07-31T00:15:01;7.18;;;2.15;;
69280;SDS011;56392;51.082;17.080;2023-07-31T00:20:26;6.47;;;2.13;;
69280;SDS011;56392;51.082;17.080;2023-07-31T00:25:49;7.10;;;2.00;;
69280;SDS011;56392;51.082;17.080;2023-07-31T00:31:12;6.23;;;2.20;;
69280;SDS011;56392;51.082;17.080;2023-07-31T00:36:37;8.20;;;2.30;;
69280;SDS011;56392;51.082;17.080;2023-07-31T00:42:00;9.57;;;2.03;;
69280;SDS011;56392;51.082;17.080;2023-07-31T00:47:23;8.27;;;1.90;;
69280;SDS011;56392;51.082;17.080;2023-07-31T00:52:48;7.22;;;2.00;;
69280;SDS011;56392;51.082;17.080;2023-07-31T00:58:11;7.60;;;2.08;;
69280;SDS011;56392;51.082;17.080;2023-07-31T01:03:34;10.47;;;2.00;;
69280;SDS011;56392;51.082;17.080;2023-07-31T01:09:00;8.30;;;1.90;;
69280;SDS011;56392;51.082;17.080;2023-07-31T01:14:26;8.13;;;1.80;;
69280;SDS011;56392;51.082;17.080;2023-07-31T01:19:49;9.40;;;1.80;;
69280;SDS011;56392;51.082;17.080;2023-07-31T01:25:22;7.53;;;1.90;;
69280;SDS011;56392;51.082;17.080;2023-07-31T01:31:03;6.35;;;1.80;;
69280;SDS011;56392;51.082;17.080;2023-07-31T01:36:30;8.07;;;1.90;;
69280;SDS011;56392;51.082;17.080;2023-07-31T01:41:54;5.93;;;1.40;;
69280;SDS011;56392;51.082;17.080;2023-07-31T01:47:18;9.25;;;1.80;;
69280;SDS011;56392;51.082;17.080;2023-07-31T01:52:41;7.15;;;1.63;;
69280;SDS011;56392;51.082;17.080;2023-07-31T01:58:04;6.33;;;1.90;;
69280;SDS011;56392;51.082;17.080;2023-07-31T02:03:29;7.38;;;1.80;;
69280;SDS011;56392;51.082;17.080;2023-07-31T02:08:52;9.13;;;1.90;;
69280;SDS011;56392;51.082;17.080;2023-07-31T02:14:15;8.17;;;2.00;;
69280;SDS011;56392;51.082;17.080;2023-07-31T02:19:40;7.77;;;1.77;;
69280;SDS011;56392;51.082;17.080;2023-07-31T02:25:03;9.05;;;2.15;;
69280;SDS011;56392;51.082;17.080;2023-07-31T02:30:27;7.25;;;1.85;;
69280;SDS011;56392;51.082;17.080;2023-07-31T02:35:51;8.90;;;1.80;;
69280;SDS011;56392;51.082;17.080;2023-07-31T02:41:14;7.50;;;1.70;;
69280;SDS011;56392;51.082;17.080;2023-07-31T02:46:37;9.65;;;1.90;;
69280;SDS011;56392;51.082;17.080;2023-07-31T02:52:03;6.77;;;1.57;;
69280;SDS011;56392;51.082;17.080;2023-07-31T02:57:27;8.85;;;2.00;;
69280;SDS011;56392;51.082;17.080;2023-07-31T03:02:50;8.50;;;2.00;;
69280;SDS011;56392;51.082;17.080;2023-07-31T03:08:14;10.50;;;2.10;;
69280;SDS011;56392;51.082;17.080;2023-07-31T03:13:38;8.83;;;1.83;;
69280;SDS011;56392;51.082;17.080;2023-07-31T03:19:01;6.13;;;2.00;;
69280;SDS011;56392;51.082;17.080;2023-07-31T03:24:25;8.70;;;1.90;;
69280;SDS011;56392;51.082;17.080;2023-07-31T03:29:49;9.03;;;1.97;;
69280;SDS011;56392;51.082;17.080;2023-07-31T03:35:13;11.23;;;1.88;;
69280;SDS011;56392;51.082;17.080;2023-07-31T03:40:37;8.18;;;1.80;;
69280;SDS011;56392;51.082;17.080;2023-07-31T03:46:00;9.40;;;1.90;;
69280;SDS011;56392;51.082;17.080;2023-07-31T03:51:24;7.05;;;1.92;;
69280;SDS011;56392;51.082;17.080;2023-07-31T03:56:48;11.80;;;2.53;;
69280;SDS011;56392;51.082;17.080;2023-07-31T04:02:12;10.73;;;2.37;;
69280;SDS011;56392;51.082;17.080;2023-07-31T04:07:35;9.00;;;2.00;;
69280;SDS011;56392;51.082;17.080;2023-07-31T04:13:00;10.70;;;2.08;;
69280;SDS011;56392;51.082;17.080;2023-07-31T04:18:24;8.85;;;1.95;;
69280;SDS011;56392;51.082;17.080;2023-07-31T04:23:47;7.53;;;2.00;;
69280;SDS011;56392;51.082;17.080;2023-07-31T04:29:15;7.05;;;1.83;;
69280;SDS011;56392;51.082;17.080;2023-07-31T04:34:38;7.60;;;2.00;;
69280;SDS011;56392;51.082;17.080;2023-07-31T04:40:01;11.97;;;2.63;;
69280;SDS011;56392;51.082;17.080;2023-07-31T04:45:26;11.73;;;2.38;;
69280;SDS011;56392;51.082;17.080;2023-07-31T04:50:49;8.43;;;2.35;;
69280;SDS011;56392;51.082;17.080;2023-07-31T04:56:15;11.00;;;2.70;;
69280;SDS011;56392;51.082;17.080;2023-07-31T05:01:40;12.40;;;2.70;;
69280;SDS011;56392;51.082;17.080;2023-07-31T05:07:03;8.77;;;2.85;;
69280;SDS011;56392;51.082;17.080;2023-07-31T05:12:26;11.70;;;3.13;;
69280;SDS011;56392;51.082;17.080;2023-07-31T05:17:51;11.03;;;2.70;;
69280;SDS011;56392;51.082;17.080;2023-07-31T05:23:15;11.60;;;3.70;;
69280;SDS011;56392;51.082;17.080;2023-07-31T05:28:40;8.48;;;2.20;;
69280;SDS011;56392;51.082;17.080;2023-07-31T05:34:05;8.10;;;2.20;;
69280;SDS011;56392;51.082;17.080;2023-07-31T05:39:28;9.10;;;1.80;;
69280;SDS011;56392;51.082;17.080;2023-07-31T05:44:51;7.47;;;1.90;;
69280;SDS011;56392;51.082;17.080;2023-07-31T05:50:16;7.73;;;1.80;;
69280;SDS011;56392;51.082;17.080;2023-07-31T05:55:39;9.40;;;2.20;;
69280;SDS011;56392;51.082;17.080;2023-07-31T06:01:02;8.02;;;2.00;;
69280;SDS011;56392;51.082;17.080;2023-07-31T06:06:26;6.80;;;1.80;;
69280;SDS011;56392;51.082;17.080;2023-07-31T06:11:49;8.00;;;1.70;;
69280;SDS011;56392;51.082;17.080;2023-07-31T06:17:12;6.50;;;1.73;;
69280;SDS011;56392;51.082;17.080;2023-07-31T06:22:38;9.30;;;1.80;;
69280;SDS011;56392;51.082;17.080;2023-07-31T06:28:01;8.30;;;2.10;;
69280;SDS011;56392;51.082;17.080;2023-07-31T06:33:24;8.20;;;1.80;;
69280;SDS011;56392;51.082;17.080;2023-07-31T06:38:49;7.43;;;1.92;;
69280;SDS011;56392;51.082;17.080;2023-07-31T06:44:12;8.43;;;1.70;;
69280;SDS011;56392;51.082;17.080;2023-07-31T06:49:35;7.53;;;2.07;;
69280;SDS011;56392;51.082;17.080;2023-07-31T06:55:03;7.18;;;1.80;;
69280;SDS011;56392;51.082;17.080;2023-07-31T07:00:38;7.05;;;2.35;;
69280;SDS011;56392;51.082;17.080;2023-07-31T07:06:01;7.07;;;1.80;;
69280;SDS011;56392;51.082;17.080;2023-07-31T07:11:25;8.45;;;1.90;;
69280;SDS011;56392;51.082;17.080;2023-07-31T07:16:50;7.60;;;2.25;;
69280;SDS011;56392;51.082;17.080;2023-07-31T07:22:13;9.67;;;1.87;;
69280;SDS011;56392;51.082;17.080;2023-07-31T07:27:38;9.60;;;1.83;;
69280;SDS011;56392;51.082;17.080;2023-07-31T07:33:01;6.32;;;1.90;;
69280;SDS011;56392;51.082;17.080;2023-07-31T07:38:24;10.03;;;2.07;;
69280;SDS011;56392;51.082;17.080;2023-07-31T07:43:48;7.23;;;1.80;;
69280;SDS011;56392;51.082;17.080;2023-07-31T07:49:12;6.97;;;1.98;;
69280;SDS011;56392;51.082;17.080;2023-07-31T07:54:35;7.38;;;1.60;;
69280;SDS011;56392;51.082;17.080;2023-07-31T08:00:00;7.50;;;1.97;;
69280;SDS011;56392;51.082;17.080;2023-07-31T08:05:23;7.18;;;2.13;;
69280;SDS011;56392;51.082;17.080;2023-07-31T08:10:46;7.65;;;1.70;;
69280;SDS011;56392;51.082;17.080;2023-07-31T08:16:12;7.80;;;1.80;;
69280;SDS011;56392;51.082;17.080;2023-07-31T08:21:38;5.32;;;1.70;;
69280;SDS011;56392;51.082;17.080;2023-07-31T08:27:01;8.02;;;2.10;;
69280;SDS011;56392;51.082;17.080;2023-07-31T08:32:26;7.22;;;1.83;;
69280;SDS011;56392;51.082;17.080;2023-07-31T08:37:49;7.43;;;1.57;;
69280;SDS011;56392;51.082;17.080;2023-07-31T08:43:12;6.78;;;2.03;;
69280;SDS011;56392;51.082;17.080;2023-07-31T08:48:37;9.00;;;2.00;;
69280;SDS011;56392;51.082;17.080;2023-07-31T08:54:00;6.57;;;1.77;;
69280;SDS011;56392;51.082;17.080;2023-07-31T08:59:25;7.30;;;2.00;;
69280;SDS011;56392;51.082;17.080;2023-07-31T09:04:52;6.35;;;1.90;;
69280;SDS011;56392;51.082;17.080;2023-07-31T09:10:15;8.17;;;2.20;;
69280;SDS011;56392;51.082;17.080;2023-07-31T09:15:38;7.85;;;2.40;;
69280;SDS011;56392;51.082;17.080;2023-07-31T09:21:04;9.55;;;2.20;;
69280;SDS011;56392;51.082;17.080;2023-07-31T09:26:29;7.23;;;2.57;;
69280;SDS011;56392;51.082;17.080;2023-07-31T09:31:53;7.17;;;2.30;;
69280;SDS011;56392;51.082;17.080;2023-07-31T09:37:18;5.80;;;1.95;;
69280;SDS011;56392;51.082;17.080;2023-07-31T09:42:41;6.18;;;1.90;;
69280;SDS011;56392;51.082;17.080;2023-07-31T09:48:06;6.47;;;2.00;;
69280;SDS011;56392;51.082;17.080;2023-07-31T09:53:35;9.00;;;2.30;;
69280;SDS011;56392;51.082;17.080;2023-07-31T09:59:02;7.00;;;2.15;;
69280;SDS011;56392;51.082;17.080;2023-07-31T10:04:27;6.20;;;2.00;;
69280;SDS011;56392;51.082;17.080;2023-07-31T10:09:52;7.55;;;2.30;;
69280;SDS011;56392;51.082;17.080;2023-07-31T10:15:16;7.97;;;2.00;;
69280;SDS011;56392;51.082;17.080;2023-07-31T10:20:40;6.57;;;2.20;;
69280;SDS011;56392;51.082;17.080;2023-07-31T10:26:05;6.67;;;1.93;;
69280;SDS011;56392;51.082;17.080;2023-07-31T10:31:30;6.32;;;1.50;;
69280;SDS011;56392;51.082;17.080;2023-07-31T10:42:47;6.70;;;1.60;;
69280;SDS011;56392;51.082;17.080;2023-07-31T10:48:12;5.22;;;1.50;;
69280;SDS011;56392;51.082;17.080;2023-07-31T10:53:36;6.25;;;1.48;;
69280;SDS011;56392;51.082;17.080;2023-07-31T10:59:01;7.83;;;2.00;;
69280;SDS011;56392;51.082;17.080;2023-07-31T11:04:25;7.35;;;1.80;;
69280;SDS011;56392;51.082;17.080;2023-07-31T11:09:49;6.70;;;2.20;;
69280;SDS011;56392;51.082;17.080;2023-07-31T11:15:15;7.07;;;2.00;;
69280;SDS011;56392;51.082;17.080;2023-07-31T11:20:38;7.27;;;1.97;;
69280;SDS011;56392;51.082;17.080;2023-07-31T11:26:01;4.90;;;1.75;;
69280;SDS011;56392;51.082;17.080;2023-07-31T11:31:26;6.75;;;2.38;;
69280;SDS011;56392;51.082;17.080;2023-07-31T11:36:52;6.07;;;2.00;;
69280;SDS011;56392;51.082;17.080;2023-07-31T11:42:16;8.70;;;2.90;;
69280;SDS011;56392;51.082;17.080;2023-07-31T11:47:40;8.00;;;1.98;;
69280;SDS011;56392;51.082;17.080;2023-07-31T11:53:04;8.63;;;2.40;;
69280;SDS011;56392;51.082;17.080;2023-07-31T11:58:31;7.10;;;2.00;;
69280;SDS011;56392;51.082;17.080;2023-07-31T12:03:58;6.35;;;2.00;;
69280;SDS011;56392;51.082;17.080;2023-07-31T12:09:22;6.77;;;2.10;;
69280;SDS011;56392;51.082;17.080;2023-07-31T12:14:45;6.33;;;2.00;;
69280;SDS011;56392;51.082;17.080;2023-07-31T12:20:10;7.40;;;2.10;;
69280;SDS011;56392;51.082;17.080;2023-07-31T12:25:33;5.50;;;2.17;;
69280;SDS011;56392;51.082;17.080;2023-07-31T12:30:57;5.83;;;2.23;;
69280;SDS011;56392;51.082;17.080;2023-07-31T12:36:23;6.82;;;2.20;;
69280;SDS011;56392;51.082;17.080;2023-07-31T12:41:47;8.82;;;2.30;;
69280;SDS011;56392;51.082;17.080;2023-07-31T12:47:11;7.03;;;2.50;;
69280;SDS011;56392;51.082;17.080;2023-07-31T12:52:38;9.40;;;2.45;;
69280;SDS011;56392;51.082;17.080;2023-07-31T12:58:01;7.30;;;2.60;;
69280;SDS011;56392;51.082;17.080;2023-07-31T13:03:24;8.73;;;2.50;;
69280;SDS011;56392;51.082;17.080;2023-07-31T13:08:48;7.57;;;2.70;;
69280;SDS011;56392;51.082;17.080;2023-07-31T13:14:11;7.43;;;2.70;;
69280;SDS011;56392;51.082;17.080;2023-07-31T13:19:34;8.13;;;2.65;;
69280;SDS011;56392;51.082;17.080;2023-07-31T13:24:58;7.03;;;2.63;;
69280;SDS011;56392;51.082;17.080;2023-07-31T13:30:22;6.85;;;2.60;;
69280;SDS011;56392;51.082;17.080;2023-07-31T13:35:45;9.77;;;3.25;;
69280;SDS011;56392;51.082;17.080;2023-07-31T13:41:09;7.17;;;2.67;;
69280;SDS011;56392;51.082;17.080;2023-07-31T13:46:32;8.57;;;2.80;;
69280;SDS011;56392;51.082;17.080;2023-07-31T13:51:55;14.38;;;3.40;;
69280;SDS011;56392;51.082;17.080;2023-07-31T13:57:20;8.02;;;2.80;;
69280;SDS011;56392;51.082;17.080;2023-07-31T14:02:44;6.20;;;2.50;;
69280;SDS011;56392;51.082;17.080;2023-07-31T14:08:07;7.97;;;2.88;;
69280;SDS011;56392;51.082;17.080;2023-07-31T14:13:32;10.15;;;2.80;;
69280;SDS011;56392;51.082;17.080;2023-07-31T14:18:55;7.63;;;2.77;;
69280;SDS011;56392;51.082;17.080;2023-07-31T14:24:20;7.57;;;2.72;;
69280;SDS011;56392;51.082;17.080;2023-07-31T14:29:44;7.75;;;2.80;;
69280;SDS011;56392;51.082;17.080;2023-07-31T14:35:07;8.33;;;2.50;;
69280;SDS011;56392;51.082;17.080;2023-07-31T14:40:30;7.60;;;2.63;;
69280;SDS011;56392;51.082;17.080;2023-07-31T14:45:55;7.57;;;2.50;;
69280;SDS011;56392;51.082;17.080;2023-07-31T14:51:20;8.38;;;2.72;;
69280;SDS011;56392;51.082;17.080;2023-07-31T14:56:43;6.10;;;2.30;;
69280;SDS011;56392;51.082;17.080;2023-07-31T15:02:08;8.68;;;2.47;;
69280;SDS011;56392;51.082;17.080;2023-07-31T15:07:31;7.70;;;2.50;;
69280;SDS011;56392;51.082;17.080;2023-07-31T15:12:54;7.17;;;2.27;;
69280;SDS011;56392;51.082;17.080;2023-07-31T15:18:19;8.85;;;2.50;;
69280;SDS011;56392;51.082;17.080;2023-07-31T15:23:42;10.60;;;2.78;;
69280;SDS011;56392;51.082;17.080;2023-07-31T15:29:05;7.57;;;2.53;;
69280;SDS011;56392;51.082;17.080;2023-07-31T15:34:34;8.00;;;2.42;;
69280;SDS011;56392;51.082;17.080;2023-07-31T15:39:57;8.35;;;2.67;;
69280;SDS011;56392;51.082;17.080;2023-07-31T15:45:20;9.38;;;2.55;;
69280;SDS011;56392;51.082;17.080;2023-07-31T15:50:44;6.97;;;2.40;;
69280;SDS011;56392;51.082;17.080;2023-07-31T15:56:07;8.27;;;2.55;;
69280;SDS011;56392;51.082;17.080;2023-07-31T16:01:30;7.28;;;2.88;;
69280;SDS011;56392;51.082;17.080;2023-07-31T16:06:55;7.43;;;2.33;;
69280;SDS011;56392;51.082;17.080;2023-07-31T16:12:18;6.93;;;2.50;;
69280;SDS011;56392;51.082;17.080;2023-07-31T16:17:41;7.07;;;2.40;;
69280;SDS011;56392;51.082;17.080;2023-07-31T16:23:06;7.70;;;2.50;;
69280;SDS011;56392;51.082;17.080;2023-07-31T16:28:29;6.63;;;2.30;;
69280;SDS011;56392;51.082;17.080;2023-07-31T16:33:52;9.20;;;2.05;;
69280;SDS011;56392;51.082;17.080;2023-07-31T16:39:17;6.45;;;2.30;;
69280;SDS011;56392;51.082;17.080;2023-07-31T16:44:42;7.00;;;2.10;;
69280;SDS011;56392;51.082;17.080;2023-07-31T16:50:05;7.13;;;2.35;;
69280;SDS011;56392;51.082;17.080;2023-07-31T16:55:30;6.07;;;2.10;;
69280;SDS011;56392;51.082;17.080;2023-07-31T17:00:55;7.50;;;2.10;;
69280;SDS011;56392;51.082;17.080;2023-07-31T17:06:20;6.28;;;2.00;;
69280;SDS011;56392;51.082;17.080;2023-07-31T17:11:45;7.78;;;2.00;;
69280;SDS011;56392;51.082;17.080;2023-07-31T17:17:09;6.57;;;2.10;;
69280;SDS011;56392;51.082;17.080;2023-07-31T17:22:32;6.72;;;2.10;;
69280;SDS011;56392;51.082;17.080;2023-07-31T17:27:57;7.97;;;2.20;;
69280;SDS011;56392;51.082;17.080;2023-07-31T17:33:20;5.73;;;1.90;;
69280;SDS011;56392;51.082;17.080;2023-07-31T17:38:43;6.00;;;2.10;;
69280;SDS011;56392;51.082;17.080;2023-07-31T17:44:08;8.77;;;2.00;;
69280;SDS011;56392;51.082;17.080;2023-07-31T17:49:32;7.13;;;2.30;;
69280;SDS011;56392;51.082;17.080;2023-07-31T17:54:55;11.43;;;2.20;;
69280;SDS011;56392;51.082;17.080;2023-07-31T18:00:19;5.95;;;2.10;;
69280;SDS011;56392;51.082;17.080;2023-07-31T18:05:44;6.78;;;2.10;;
69280;SDS011;56392;51.082;17.080;2023-07-31T18:11:09;7.70;;;2.30;;
69280;SDS011;56392;51.082;17.080;2023-07-31T18:16:37;7.93;;;2.47;;
69280;SDS011;56392;51.082;17.080;2023-07-31T18:22:00;7.18;;;2.17;;
69280;SDS011;56392;51.082;17.080;2023-07-31T18:27:23;7.00;;;2.47;;
69280;SDS011;56392;51.082;17.080;2023-07-31T18:32:47;8.70;;;3.20;;
69280;SDS011;56392;51.082;17.080;2023-07-31T18:38:11;7.07;;;2.50;;
69280;SDS011;56392;51.082;17.080;2023-07-31T18:43:34;8.07;;;2.55;;
69280;SDS011;56392;51.082;17.080;2023-07-31T18:48:58;9.33;;;3.23;;
69280;SDS011;56392;51.082;17.080;2023-07-31T18:54:22;8.60;;;2.78;;
69280;SDS011;56392;51.082;17.080;2023-07-31T18:59:45;8.05;;;2.70;;
69280;SDS011;56392;51.082;17.080;2023-07-31T19:05:09;8.43;;;2.80;;
69280;SDS011;56392;51.082;17.080;2023-07-31T19:10:33;8.25;;;2.65;;
69280;SDS011;56392;51.082;17.080;2023-07-31T19:15:56;9.73;;;3.00;;
69280;SDS011;56392;51.082;17.080;2023-07-31T19:21:21;9.17;;;3.00;;
69280;SDS011;56392;51.082;17.080;2023-07-31T19:26:44;8.13;;;2.97;;
69280;SDS011;56392;51.082;17.080;2023-07-31T19:32:07;8.70;;;2.97;;
69280;SDS011;56392;51.082;17.080;2023-07-31T19:37:32;14.50;;;2.70;;
69280;SDS011;56392;51.082;17.080;2023-07-31T19:42:55;9.40;;;2.90;;
69280;SDS011;56392;51.082;17.080;2023-07-31T19:48:21;9.00;;;2.90;;
69280;SDS011;56392;51.082;17.080;2023-07-31T19:53:46;7.72;;;3.35;;
69280;SDS011;56392;51.082;17.080;2023-07-31T19:59:09;11.87;;;2.60;;
69280;SDS011;56392;51.082;17.080;2023-07-31T20:04:32;7.50;;;2.40;;
69280;SDS011;56392;51.082;17.080;2023-07-31T20:09:57;10.13;;;2.58;;
69280;SDS011;56392;51.082;17.080;2023-07-31T20:15:20;7.67;;;2.37;;
69280;SDS011;56392;51.082;17.080;2023-07-31T20:20:45;8.80;;;2.60;;
69280;SDS011;56392;51.082;17.080;2023-07-31T20:26:12;8.63;;;2.65;;
69280;SDS011;56392;51.082;17.080;2023-07-31T20:31:35;10.43;;;2.70;;
69280;SDS011;56392;51.082;17.080;2023-07-31T20:36:59;8.80;;;2.73;;
69280;SDS011;56392;51.082;17.080;2023-07-31T20:42:25;7.65;;;2.45;;
69280;SDS011;56392;51.082;17.080;2023-07-31T20:47:49;8.13;;;2.65;;
69280;SDS011;56392;51.082;17.080;2023-07-31T20:53:12;8.83;;;2.80;;
69280;SDS011;56392;51.082;17.080;2023-07-31T20:58:36;7.28;;;2.33;;
69280;SDS011;56392;51.082;17.080;2023-07-31T21:04:00;8.32;;;2.38;;
69280;SDS011;56392;51.082;17.080;2023-07-31T21:09:24;7.23;;;2.50;;
69280;SDS011;56392;51.082;17.080;2023-07-31T21:14:48;9.17;;;2.90;;
69280;SDS011;56392;51.082;17.080;2023-07-31T21:20:12;8.02;;;2.92;;
69280;SDS011;56392;51.082;17.080;2023-07-31T21:25:36;9.35;;;2.80;;
69280;SDS011;56392;51.082;17.080;2023-07-31T21:31:07;8.73;;;2.80;;
69280;SDS011;56392;51.082;17.080;2023-07-31T21:36:31;6.95;;;2.70;;
69280;SDS011;56392;51.082;17.080;2023-07-31T21:41:54;9.43;;;2.85;;
69280;SDS011;56392;51.082;17.080;2023-07-31T21:47:20;7.07;;;2.40;;
69280;SDS011;56392;51.082;17.080;2023-07-31T21:52:43;6.93;;;2.35;;
69280;SDS011;56392;51.082;17.080;2023-07-31T21:58:06;10.38;;;2.72;;
69280;SDS011;56392;51.082;17.080;2023-07-31T22:03:30;6.93;;;2.50;;
69280;SDS011;56392;51.082;17.080;2023-07-31T22:08:53;9.40;;;2.50;;
69280;SDS011;56392;51.082;17.080;2023-07-31T22:14:16;7.45;;;2.30;;
69280;SDS011;56392;51.082;17.080;2023-07-31T22:19:40;8.75;;;2.42;;
69280;SDS011;56392;51.082;17.080;2023-07-31T22:25:04;10.60;;;2.80;;
69280;SDS011;56392;51.082;17.080;2023-07-31T22:30:27;7.28;;;2.55;;
69280;SDS011;56392;51.082;17.080;2023-07-31T22:35:52;8.43;;;2.90;;
69280;SDS011;56392;51.082;17.080;2023-07-31T22:41:15;10.17;;;2.47;;
69280;SDS011;56392;51.082;17.080;2023-07-31T22:46:38;9.77;;;2.20;;
69280;SDS011;56392;51.082;17.080;2023-07-31T22:52:03;6.32;;;2.42;;
69280;SDS011;56392;51.082;17.080;2023-07-31T22:57:26;7.33;;;2.50;;
69280;SDS011;56392;51.082;17.080;2023-07-31T23:02:49;8.57;;;2.43;;
69280;SDS011;56392;51.082;17.080;2023-07-31T23:08:14;8.55;;;2.70;;
69280;SDS011;56392;51.082;17.080;2023-07-31T23:13:37;8.55;;;2.53;;
69280;SDS011;56392;51.082;17.080;2023-07-31T23:19:00;7.03;;;2.30;;
69280;SDS011;56392;51.082;17.080;2023-07-31T23:24:24;7.28;;;2.45;;
69280;SDS011;56392;51.082;17.080;2023-07-31T23:29:47;6.70;;;2.20;;
69280;SDS011;56392;51.082;17.080;2023-07-31T23:35:10;6.63;;;2.40;;
69280;SDS011;56392;51.082;17.080;2023-07-31T23:40:35;7.85;;;2.38;;
69280;SDS011;56392;51.082;17.080;2023-07-31T23:45:58;8.20;;;2.65;;
69280;SDS011;56392;51.082;17.080;2023-07-31T23:51:21;7.00;;;2.43;;
69280;SDS011;56392;51.082;17.080;2023-07-31T23:56:46;7.37;;;2.23;;
